Time;durP1;ratioP1;P1;durP2;ratioP2;P2;SDS_P1;SDS_P2;PMS_P1;PMS_P2;Temp;Humidity;BMP_temperature;BMP_pressure;BME280_temperature;BME280_humidity;BME280_pressure;Samples;Min_cycle;Max_cycle;Signal;HPM_P1;HPM_P2
2024/03/13 00:00:34;;;;;;;61.30;15.48;;;12.40;99.90;;;12.74;100.00;101097.03;5032413;28;20052;-70
2024/03/13 00:03:03;;;;;;;74.88;16.00;;;12.40;99.90;;;12.66;100.00;101093.56;5032723;28;20041;-69
2024/03/13 00:05:32;;;;;;;66.00;16.17;;;12.40;99.90;;;12.75;100.00;101096.16;5032053;28;20033;-70
2024/03/13 00:08:02;;;;;;;60.63;15.18;;;12.40;99.90;;;12.74;100.00;101101.50;5032615;28;20041;-69
2024/03/13 00:10:30;;;;;;;60.90;14.80;;;12.40;99.90;;;12.54;100.00;101083.09;5032520;28;20049;-70
2024/03/13 00:12:59;;;;;;;64.03;14.57;;;12.40;99.90;;;12.64;100.00;101101.56;5032345;28;20090;-69
2024/03/13 00:15:28;;;;;;;62.75;14.98;;;12.40;99.90;;;12.68;100.00;101110.38;5032179;28;20045;-69
2024/03/13 00:17:56;;;;;;;55.78;14.23;;;12.30;99.90;;;12.72;100.00;101109.44;5032194;28;20092;-69
2024/03/13 00:20:25;;;;;;;62.97;14.73;;;12.40;99.90;;;12.70;100.00;101112.13;5032207;28;20051;-69
2024/03/13 00:22:55;;;;;;;60.28;14.57;;;12.40;99.90;;;12.56;100.00;101081.31;5032231;28;20063;-70
2024/03/13 00:25:24;;;;;;;55.70;13.90;;;12.40;99.90;;;12.75;100.00;101114.75;5032340;28;20045;-69
2024/03/13 00:27:53;;;;;;;59.15;14.93;;;12.40;99.90;;;12.74;100.00;101114.75;5032163;28;20088;-70
2024/03/13 00:30:22;;;;;;;54.05;13.63;;;12.40;99.90;;;12.76;100.00;101113.84;5032615;28;20037;-69
2024/03/13 00:32:53;;;;;;;51.58;14.00;;;12.40;99.90;;;12.78;100.00;101104.09;5014595;28;20061;-69
2024/03/13 00:35:22;;;;;;;54.63;13.73;;;12.40;99.90;;;12.77;100.00;101115.63;5032411;28;20072;-70
2024/03/13 00:37:51;;;;;;;49.75;14.85;;;12.40;99.90;;;12.84;100.00;101109.34;5032469;28;20351;-69
2024/03/13 00:40:19;;;;;;;56.13;14.00;;;12.50;99.90;;;12.79;100.00;101120.91;5032295;28;20041;-70
2024/03/13 00:42:49;;;;;;;60.92;14.38;;;12.50;99.90;;;12.72;100.00;101113.91;5032571;28;20132;-69
2024/03/13 00:45:18;;;;;;;55.47;13.63;;;12.50;99.90;;;12.71;100.00;101110.34;5032595;28;20045;-69
2024/03/13 00:47:46;;;;;;;61.53;16.48;;;12.40;99.90;;;12.78;100.00;101112.03;5032235;28;20449;-69
2024/03/13 00:50:15;;;;;;;64.95;16.65;;;12.40;99.90;;;12.73;100.00;101111.22;5032424;28;20423;-70
2024/03/13 00:52:44;;;;;;;61.00;16.23;;;12.40;99.90;;;12.75;100.00;101117.41;5032197;28;20048;-70
2024/03/13 00:55:13;;;;;;;56.90;16.58;;;12.40;99.90;;;12.68;100.00;101107.72;5032291;28;20042;-69
2024/03/13 00:57:42;;;;;;;58.88;15.65;;;12.40;99.90;;;12.69;100.00;101112.16;5031832;28;20052;-70
2024/03/13 01:00:18;;;;;;;67.90;17.02;;;12.40;99.90;;;12.68;100.00;101111.25;5032285;28;20111;-70
2024/03/13 01:02:47;;;;;;;56.60;15.98;;;12.40;99.90;;;12.72;100.00;101129.81;5032536;28;20235;-69
2024/03/13 01:05:16;;;;;;;62.47;16.20;;;12.40;99.90;;;12.62;100.00;101113.97;5014659;28;20095;-70
2024/03/13 01:07:50;;;;;;;54.22;15.70;;;12.30;99.90;;;12.65;100.00;101128.97;5032752;28;20089;-69
2024/03/13 01:10:19;;;;;;;62.22;15.70;;;12.30;99.90;;;12.66;100.00;101128.06;5014309;28;20050;-69
2024/03/13 01:12:49;;;;;;;61.72;16.30;;;12.30;99.90;;;12.56;100.00;101113.16;5032018;28;20033;-70
2024/03/13 01:15:20;;;;;;;46.25;15.15;;;12.30;99.90;;;12.65;100.00;101121.03;5031847;28;20052;-69
2024/03/13 01:17:48;;;;;;;57.88;15.95;;;12.30;99.90;;;12.67;100.00;101121.91;5034322;28;20079;-69
2024/03/13 01:20:18;;;;;;;55.88;14.95;;;12.30;99.90;;;12.70;100.00;101124.50;5033552;28;20049;-69
2024/03/13 01:22:49;;;;;;;52.17;15.13;;;12.40;99.90;;;12.66;100.00;101121.00;5033850;28;20394;-69
2024/03/13 01:25:19;;;;;;;54.30;14.98;;;12.40;99.90;;;12.64;100.00;101117.47;5033646;28;20045;-69
2024/03/13 01:27:48;;;;;;;60.65;15.07;;;12.30;99.90;;;12.55;100.00;101114.03;5034526;28;20033;-69
2024/03/13 01:30:18;;;;;;;55.30;15.77;;;12.30;99.90;;;12.59;100.00;101121.97;5492035;23;20013;-62
2024/03/13 01:32:47;;;;;;;53.10;15.20;;;12.30;99.90;;;12.67;100.00;101125.44;5015152;28;20045;-62
2024/03/13 01:35:19;;;;;;;55.70;16.10;;;12.30;99.90;;;12.62;100.00;101129.88;5016155;28;20369;-61
2024/03/13 01:37:55;;;;;;;45.90;15.35;;;12.30;99.90;;;12.68;100.00;101134.25;5016412;28;20065;-61
2024/03/13 01:54:50;;;;;;;58.13;17.35;;;12.30;99.90;;;12.73;100.00;101136.88;5014898;28;20069;-61
2024/03/13 01:55:04;;;;;;;40.55;15.68;;;12.50;99.90;;;12.83;100.00;101143.88;5013712;28;20042;-61
2024/03/13 01:57:45;;;;;;;41.20;14.40;;;12.50;99.90;;;12.66;100.00;101138.69;4996049;28;20057;-62
2024/03/13 02:03:03;;;;;;;46.75;15.50;;;12.40;99.90;;;12.74;100.00;101130.69;4996315;28;20044;-61
2024/03/13 02:05:33;;;;;;;39.90;15.30;;;12.40;99.90;;;12.73;100.00;101137.75;5014259;28;20438;-63
2024/03/13 02:08:02;;;;;;;39.72;15.50;;;12.40;99.90;;;12.69;100.00;101136.03;5014023;28;20111;-64
2024/03/13 02:10:30;;;;;;;54.58;17.98;;;12.40;99.90;;;12.68;100.00;101142.22;4996089;28;20042;-61
2024/03/13 02:13:04;;;;;;;46.67;17.38;;;12.40;99.90;;;12.75;100.00;101135.97;5013218;28;20050;-63
2024/03/13 02:15:32;;;;;;;49.55;18.25;;;12.40;99.90;;;12.68;100.00;101139.56;5013526;28;20052;-61
2024/03/13 02:18:05;;;;;;;47.45;18.10;;;12.40;99.90;;;12.54;100.00;101142.31;4995949;28;20063;-61
2024/03/13 02:20:36;;;;;;;39.08;16.73;;;12.40;99.90;;;12.67;100.00;101132.50;5013215;28;20054;-61
2024/03/13 02:23:05;;;;;;;45.97;16.50;;;12.30;99.90;;;12.58;100.00;101130.78;5013465;28;20077;-64
2024/03/13 02:25:34;;;;;;;45.50;17.45;;;12.30;99.90;;;12.64;100.00;101132.50;5013399;28;20135;-61
2024/03/13 02:28:03;;;;;;;47.35;16.75;;;12.30;99.90;;;12.58;100.00;101129.94;4963980;28;20129;-64
2024/03/13 02:30:31;;;;;;;48.90;15.63;;;12.30;99.90;;;12.63;100.00;101136.06;4963566;28;20054;-64
2024/03/13 02:33:00;;;;;;;44.92;16.17;;;12.30;99.90;;;12.64;100.00;101136.06;4963701;28;20713;-64
2024/03/13 02:35:29;;;;;;;50.67;16.63;;;12.30;99.90;;;12.56;100.00;101129.94;4948103;28;20505;-63
2024/03/13 02:37:57;;;;;;;41.92;15.85;;;12.30;99.90;;;12.60;100.00;101117.53;4963784;28;20084;-61
2024/03/13 02:40:26;;;;;;;49.28;16.95;;;12.30;99.90;;;12.56;100.00;101121.97;4963721;28;20054;-65
2024/03/13 02:42:54;;;;;;;41.78;14.80;;;12.30;99.90;;;12.55;100.00;101122.00;4963807;28;20053;-61
2024/03/13 02:45:24;;;;;;;42.75;15.57;;;12.20;99.90;;;12.57;100.00;101123.75;4963192;28;20046;-64
2024/03/13 02:47:53;;;;;;;46.50;14.90;;;12.20;99.90;;;12.52;100.00;101122.88;4963846;28;20069;-62
2024/03/13 02:50:22;;;;;;;50.58;15.68;;;12.20;99.90;;;12.57;100.00;101123.75;4963487;28;20049;-66
2024/03/13 02:52:50;;;;;;;45.97;13.65;;;12.20;99.90;;;12.54;100.00;101125.56;4963108;28;20049;-63
2024/03/13 02:55:19;;;;;;;54.45;15.75;;;12.20;99.90;;;12.59;100.00;101123.72;4963056;28;20081;-60
2024/03/13 02:57:49;;;;;;;48.95;15.23;;;12.30;99.90;;;12.57;100.00;101125.50;4947065;28;20046;-63
2024/03/13 03:00:18;;;;;;;41.00;13.75;;;12.30;99.90;;;12.66;100.00;101125.41;4963462;28;20056;-62
2024/03/13 03:02:46;;;;;;;46.22;13.05;;;12.30;99.90;;;12.67;100.00;101133.41;4962789;28;20045;-63
2024/03/13 03:05:15;;;;;;;42.60;12.35;;;12.30;99.90;;;12.67;100.00;101130.75;4962623;28;20064;-61
2024/03/13 03:07:43;;;;;;;37.78;11.70;;;12.30;99.90;;;12.72;100.00;101135.13;4962793;28;20050;-62
2024/03/13 03:10:11;;;;;;;37.55;11.32;;;12.40;99.90;;;12.78;100.00;101140.34;4962973;28;20045;-60
2024/03/13 03:12:42;;;;;;;41.10;11.73;;;12.40;99.90;;;12.74;100.00;101144.81;4946764;28;20049;-61
2024/03/13 03:15:11;;;;;;;;;;;12.40;99.90;;;12.74;100.00;101141.31;4964079;28;20107;-61
2024/03/13 03:17:40;;;;;;;40.25;11.73;;;12.40;99.90;;;12.74;100.00;101144.81;4978675;28;20322;-60
2024/03/13 03:20:10;;;;;;;42.22;11.63;;;12.40;99.90;;;12.74;100.00;101139.50;4946573;28;20065;-65
2024/03/13 03:22:38;;;;;;;42.40;10.87;;;12.40;99.90;;;12.72;100.00;101141.28;4946893;28;20059;-64
2024/03/13 03:25:09;;;;;;;42.22;10.45;;;12.40;99.90;;;12.74;100.00;101143.97;4962531;28;20061;-60
2024/03/13 03:27:38;;;;;;;35.08;9.95;;;12.40;99.90;;;12.74;100.00;101144.81;4963244;28;20100;-61
2024/03/13 03:30:07;;;;;;;44.67;11.45;;;12.40;99.90;;;12.73;100.00;101148.38;4962739;28;20452;-61
2024/03/13 03:32:37;;;;;;;50.75;11.00;;;12.40;99.90;;;12.77;100.00;101144.81;4962396;28;20041;-61
2024/03/13 03:35:06;;;;;;;45.33;10.77;;;12.40;99.90;;;12.83;100.00;101152.72;4947105;28;20505;-61
2024/03/13 03:37:38;;;;;;;45.35;11.00;;;12.50;99.90;;;12.77;100.00;101146.56;4962672;28;20604;-62
2024/03/13 03:40:13;;;;;;;40.95;10.73;;;12.40;99.90;;;12.75;100.00;101156.31;4962844;28;20038;-61
2024/03/13 03:42:42;;;;;;;48.47;11.02;;;12.40;99.90;;;12.67;100.00;101151.09;4964829;28;20042;-63
2024/03/13 03:45:11;;;;;;;44.67;11.43;;;12.40;99.90;;;12.72;100.00;101151.06;4946538;28;20499;-64
2024/03/13 03:47:40;;;;;;;48.22;11.65;;;12.40;99.90;;;12.78;100.00;101162.47;4962553;28;20656;-61
2024/03/13 03:50:09;;;;;;;48.35;10.88;;;12.40;99.90;;;12.83;100.00;101160.69;4962402;28;20521;-61
2024/03/13 03:52:38;;;;;;;42.50;10.75;;;12.50;99.90;;;12.85;100.00;101161.56;4946395;28;20116;-62
2024/03/13 03:55:07;;;;;;;42.35;11.40;;;12.50;99.90;;;12.82;100.00;101169.53;4962334;28;20057;-63
2024/03/13 03:57:36;;;;;;;44.20;11.25;;;12.50;99.90;;;12.85;100.00;101164.22;4962595;28;20057;-61
2024/03/13 04:00:06;;;;;;;53.28;11.20;;;12.50;99.90;;;12.81;100.00;101157.16;4962099;28;20522;-61
2024/03/13 04:02:35;;;;;;;50.67;10.13;;;12.50;99.90;;;12.78;100.00;101162.47;4963062;28;20046;-61
2024/03/13 04:05:06;;;;;;;39.00;9.75;;;12.50;99.90;;;12.83;100.00;101158.03;4962668;28;20068;-61
2024/03/13 04:07:36;;;;;;;50.20;11.40;;;12.50;99.90;;;12.83;100.00;101163.34;4962678;28;20128;-61
2024/03/13 04:10:05;;;;;;;38.67;9.70;;;12.50;99.90;;;12.83;100.00;101158.03;4962406;28;20046;-61
2024/03/13 04:12:34;;;;;;;42.72;10.45;;;12.50;99.90;;;12.82;100.00;101164.22;4962184;28;20082;-61
2024/03/13 04:15:04;;;;;;;50.63;11.85;;;12.50;99.90;;;12.80;100.00;101158.03;4962162;28;20120;-61
2024/03/13 04:17:33;;;;;;;44.60;10.10;;;12.50;99.90;;;12.77;100.00;101158.09;4962612;28;20092;-60
2024/03/13 04:20:03;;;;;;;41.05;11.13;;;12.40;99.90;;;12.78;100.00;101161.59;4946051;28;20045;-61
2024/03/13 04:22:32;;;;;;;39.35;10.85;;;12.40;99.90;;;12.80;100.00;101155.38;4961877;28;20422;-64
2024/03/13 04:25:00;;;;;;;44.50;11.43;;;12.40;99.90;;;12.78;100.00;101158.94;4961680;28;20403;-62
2024/03/13 04:27:29;;;;;;;45.45;10.10;;;12.40;99.90;;;12.74;100.00;101154.56;4961483;28;20411;-62
2024/03/13 04:29:59;;;;;;;51.72;10.02;;;12.40;99.90;;;12.70;100.00;101161.66;4961413;28;20447;-60
2024/03/13 04:32:28;;;;;;;47.72;10.80;;;12.40;99.90;;;12.68;100.00;101155.47;4961719;28;20045;-61
2024/03/13 04:34:57;;;;;;;44.38;11.73;;;12.40;99.90;;;12.78;100.00;101165.13;4945525;28;20042;-60
2024/03/13 04:37:26;;;;;;;33.38;9.40;;;12.40;99.90;;;12.74;100.00;101159.88;4961848;28;20077;-61
2024/03/13 04:39:57;;;;;;;38.03;9.98;;;12.40;99.90;;;12.74;100.00;101168.72;4961236;28;20120;-61
2024/03/13 04:42:26;;;;;;;48.08;10.27;;;12.40;99.90;;;12.77;100.00;101165.16;4962259;28;20072;-62
2024/03/13 04:44:55;;;;;;;40.00;8.82;;;12.40;99.90;;;12.75;100.00;101169.59;4961354;28;20137;-62
2024/03/13 04:47:24;;;;;;;40.27;9.10;;;12.40;99.90;;;12.79;100.00;101158.94;4962269;28;20403;-63
2024/03/13 04:49:53;;;;;;;40.72;9.30;;;12.50;99.90;;;12.78;100.00;101170.44;4961778;28;20377;-63
2024/03/13 04:52:23;;;;;;;38.30;10.65;;;12.40;99.90;;;12.74;100.00;101167.84;4948072;28;20353;-61
2024/03/13 04:54:52;;;;;;;42.55;10.20;;;12.40;99.90;;;12.78;100.00;101170.44;4965824;28;20061;-63
2024/03/13 04:57:21;;;;;;;34.30;9.65;;;12.50;99.90;;;12.85;100.00;101177.47;4965341;28;20402;-62
2024/03/13 04:59:50;;;;;;;31.73;9.70;;;12.50;99.90;;;12.88;100.00;101171.25;4965535;28;20385;-63
2024/03/13 05:02:19;;;;;;;46.45;10.70;;;12.50;99.90;;;12.90;100.00;101178.31;4964904;28;20072;-62
2024/03/13 05:04:48;;;;;;;37.92;10.52;;;12.50;99.90;;;13.02;100.00;101180.84;4964958;28;20216;-63
2024/03/13 05:07:18;;;;;;;36.80;10.10;;;12.60;99.90;;;13.07;100.00;101173.75;4949214;28;20054;-62
2024/03/13 05:09:47;;;;;;;40.30;10.23;;;12.70;99.90;;;13.07;100.00;101175.53;4965265;28;20046;-62
2024/03/13 05:12:16;;;;;;;41.35;10.68;;;12.70;99.90;;;12.84;100.00;101178.34;4965040;28;20042;-62
2024/03/13 05:14:45;;;;;;;34.03;10.85;;;12.60;99.90;;;12.97;100.00;101181.81;4948996;28;20042;-66
2024/03/13 05:17:15;;;;;;;30.05;10.23;;;12.60;99.90;;;13.01;100.00;101186.16;4965056;28;20049;-65
2024/03/13 05:19:44;;;;;;;42.90;10.43;;;12.60;99.90;;;13.03;100.00;101181.72;4965592;28;20050;-64
2024/03/13 05:22:13;;;;;;;42.67;10.60;;;12.60;99.90;;;13.06;100.00;101187.06;4964643;28;20084;-63
2024/03/13 05:24:42;;;;;;;40.85;11.13;;;12.70;99.90;;;13.07;100.00;101187.03;4964688;28;20042;-62
2024/03/13 05:27:11;;;;;;;33.08;10.15;;;12.70;99.90;;;13.06;100.00;101193.25;4964889;28;20064;-62
2024/03/13 05:29:40;;;;;;;34.90;9.95;;;12.70;99.90;;;13.08;100.00;101188.81;4964866;28;20108;-62
2024/03/13 05:32:09;;;;;;;34.42;10.05;;;12.70;99.90;;;13.05;100.00;101191.47;4964370;28;20050;-64
2024/03/13 05:34:37;;;;;;;37.27;10.83;;;12.70;99.90;;;12.96;100.00;101194.19;4964933;28;20106;-63
2024/03/13 05:37:07;;;;;;;32.88;9.10;;;12.70;99.90;;;13.02;100.00;101194.13;4964761;28;20300;-61
2024/03/13 05:39:36;;;;;;;45.72;10.63;;;12.70;99.90;;;12.92;100.00;101195.09;4949218;28;20060;-61
2024/03/13 05:42:05;;;;;;;35.40;9.45;;;12.60;99.90;;;12.93;100.00;101196.84;4964593;28;20058;-65
2024/03/13 05:44:34;;;;;;;28.15;9.13;;;12.60;99.90;;;13.02;100.00;101196.78;4964675;28;20132;-62
2024/03/13 05:47:02;;;;;;;31.92;10.05;;;12.60;99.90;;;13.04;100.00;101197.69;4964129;28;20042;-64
2024/03/13 05:49:31;;;;;;;37.22;10.93;;;12.70;99.90;;;13.03;100.00;101201.22;4964630;28;20044;-62
2024/03/13 05:52:00;;;;;;;43.30;10.75;;;12.70;99.90;;;13.07;100.00;101196.75;4964446;28;20038;-61
2024/03/13 05:54:29;;;;;;;33.35;9.73;;;12.80;99.90;;;13.00;100.00;101203.88;4948008;28;20135;-62
2024/03/13 05:56:58;;;;;;;33.78;10.07;;;12.70;99.90;;;13.01;100.00;101204.75;4964590;28;20049;-61
2024/03/13 05:59:27;;;;;;;37.95;9.73;;;12.70;99.90;;;13.00;100.00;101206.53;4964335;28;20046;-64
2024/03/13 06:01:56;;;;;;;32.83;9.85;;;12.70;99.90;;;13.04;100.00;101216.28;4947813;28;20061;-64
2024/03/13 06:04:25;;;;;;;35.60;11.38;;;12.70;99.90;;;13.05;100.00;101211.81;4964717;28;20133;-62
2024/03/13 06:06:53;;;;;;;41.58;11.05;;;12.70;99.90;;;12.99;100.00;101215.38;4964153;28;20483;-62
2024/03/13 06:09:23;;;;;;;37.28;10.55;;;12.70;99.90;;;12.98;100.00;101223.38;4964130;28;20041;-61
2024/03/13 06:11:52;;;;;;;36.58;9.88;;;12.70;99.90;;;12.98;100.00;101218.97;4947900;28;20100;-65
2024/03/13 06:14:21;;;;;;;45.72;10.68;;;12.70;99.90;;;13.03;100.00;101233.09;4964192;28;20038;-61
2024/03/13 06:16:50;;;;;;;34.63;10.27;;;12.70;99.90;;;13.03;100.00;101226.88;4948413;28;20052;-62
2024/03/13 06:19:18;;;;;;;32.67;10.13;;;12.70;99.90;;;13.05;100.00;101227.75;4964410;28;20068;-65
2024/03/13 06:21:47;;;;;;;30.75;9.95;;;12.70;99.90;;;13.11;100.00;101233.91;4948041;28;20057;-62
2024/03/13 06:24:20;;;;;;;31.13;9.10;;;12.70;99.90;;;13.12;100.00;101225.06;4964176;28;20052;-63
2024/03/13 06:26:49;;;;;;;32.60;9.55;;;12.80;99.90;;;13.13;100.00;101226.81;4949624;28;20054;-64
2024/03/13 06:32:07;;;;;;;31.73;10.10;;;12.80;99.90;;;13.20;100.00;101220.53;4954792;28;20062;-63
2024/03/13 06:34:35;;;;;;;32.87;8.87;;;12.90;99.90;;;13.12;100.00;101225.06;4963996;28;20438;-63
2024/03/13 06:37:05;;;;;;;35.03;9.85;;;12.80;99.90;;;13.06;100.00;101213.59;4948310;28;20054;-64
2024/03/13 06:39:35;;;;;;;31.95;9.65;;;12.80;99.90;;;13.00;100.00;101222.47;4963610;28;20042;-64
2024/03/13 06:42:04;;;;;;;42.17;11.23;;;12.70;99.90;;;12.93;100.00;101215.44;4964107;28;20049;-67
2024/03/13 06:44:33;;;;;;;37.67;9.60;;;12.70;99.90;;;12.92;100.00;101221.66;4963533;28;20050;-63
2024/03/13 06:47:02;;;;;;;34.05;10.32;;;12.60;99.90;;;12.76;100.00;101197.88;4963303;28;20046;-62
2024/03/13 06:49:31;;;;;;;42.08;10.40;;;12.60;99.90;;;12.89;100.00;101220.81;4963723;28;20038;-63
2024/03/13 06:52:00;;;;;;;43.20;11.30;;;12.50;99.90;;;12.90;100.00;101220.78;4963159;28;20045;-64
2024/03/13 06:54:28;;;;;;;43.42;10.82;;;12.50;99.90;;;12.90;100.00;101223.44;4963186;28;20117;-66
2024/03/13 06:56:57;;;;;;;40.28;11.27;;;12.60;99.90;;;12.86;100.00;101219.06;4947236;28;20045;-62
2024/03/13 06:59:26;;;;;;;38.17;10.25;;;12.60;99.90;;;12.92;100.00;101229.63;4962870;28;20065;-65
2024/03/13 07:01:56;;;;;;;42.50;11.70;;;12.60;99.90;;;12.96;100.00;101241.09;4962745;28;20073;-64
2024/03/13 07:04:25;;;;;;;42.50;10.85;;;12.60;99.90;;;12.95;100.00;101240.22;4963774;28;20684;-63
2024/03/13 07:06:57;;;;;;;40.20;11.15;;;12.60;99.90;;;12.94;100.00;101238.47;4962808;28;20041;-63
2024/03/13 07:09:27;;;;;;;43.72;11.20;;;12.60;99.90;;;12.90;100.00;101234.06;4964351;28;20060;-68
2024/03/13 07:11:56;;;;;;;39.40;11.30;;;12.60;99.90;;;12.82;100.00;101238.56;4962924;28;20058;-63
2024/03/13 07:14:26;;;;;;;;;;;12.50;99.90;;;12.87;100.00;101236.75;4963393;28;20124;-64
2024/03/13 07:16:55;;;;;;;52.22;10.85;;;12.60;99.90;;;12.77;100.00;101237.72;4978819;28;19925;-62
2024/03/13 07:19:24;;;;;;;38.10;10.23;;;12.50;99.90;;;12.74;100.00;101232.41;4963064;28;20467;-62
2024/03/13 07:21:54;;;;;;;41.42;10.15;;;12.40;99.90;;;12.81;100.00;101234.16;4962886;28;20054;-66
2024/03/13 07:24:23;;;;;;;38.65;9.93;;;12.50;99.90;;;12.77;100.00;101232.41;4964000;28;20052;-62
2024/03/13 07:26:51;;;;;;;41.20;10.20;;;12.50;99.90;;;12.80;100.00;101245.63;4962960;28;20038;-64
2024/03/13 07:29:20;;;;;;;46.58;11.32;;;12.50;99.90;;;12.76;100.00;101249.22;4962500;28;20057;-64
2024/03/13 07:31:49;;;;;;;44.83;11.25;;;12.40;99.90;;;12.83;100.00;101242.97;4962466;28;20073;-62
2024/03/13 07:34:18;;;;;;;40.53;10.30;;;12.50;99.90;;;12.81;100.00;101247.41;4962429;28;20527;-64
2024/03/13 07:36:47;;;;;;;34.22;9.50;;;12.50;99.90;;;12.83;100.00;101240.31;4946748;28;20466;-63
2024/03/13 07:39:18;;;;;;;39.35;10.50;;;12.50;99.90;;;12.83;100.00;101247.41;4963559;28;20046;-63
2024/03/13 07:41:47;;;;;;;45.50;10.73;;;12.50;99.90;;;12.90;100.00;101255.31;4962407;28;20046;-65
2024/03/13 07:44:15;;;;;;;36.15;10.30;;;12.60;99.90;;;12.91;100.00;101253.53;4962352;28;20042;-64
2024/03/13 07:46:44;;;;;;;46.35;11.95;;;12.60;99.90;;;12.95;100.00;101256.13;4946614;28;20057;-63
2024/03/13 07:49:14;;;;;;;37.25;10.50;;;12.60;99.90;;;12.91;100.00;101248.22;4962309;28;20129;-66
2024/03/13 07:51:45;;;;;;;39.43;9.87;;;12.60;99.90;;;12.90;100.00;101249.09;4962799;28;20205;-63
2024/03/13 07:54:13;;;;;;;;;;;12.60;99.90;;;12.90;100.00;101252.66;4963465;28;20292;-65
2024/03/13 07:56:42;;;;;;;40.30;9.95;;;12.60;99.90;;;13.02;100.00;101260.53;4961838;28;19921;-65
2024/03/13 07:59:11;;;;;;;40.17;10.95;;;12.70;99.90;;;13.07;100.00;101266.69;4962371;28;20056;-65
2024/03/13 08:01:45;;;;;;;35.30;10.05;;;12.70;99.90;;;12.97;100.00;101267.63;4962460;28;20369;-65
2024/03/13 08:04:14;;;;;;;30.02;9.52;;;12.70;99.90;;;12.99;100.00;101263.19;4963029;28;20042;-66
2024/03/13 08:06:46;;;;;;;40.58;10.50;;;12.70;99.90;;;13.02;100.00;101262.28;4961889;28;20395;-65
2024/03/13 08:09:39;;;;;;;30.65;9.52;;;12.70;99.90;;;13.04;100.00;101258.78;4966424;28;20096;-65
2024/03/13 08:12:31;;;;;;;31.98;7.78;;;12.70;99.90;;;13.14;100.00;101265.75;4955839;28;20050;-64
2024/03/13 08:15:19;;;;;;;35.72;9.07;;;12.80;99.90;;;13.09;100.00;101269.34;4970036;28;20042;-65
2024/03/13 08:18:09;;;;;;;27.10;8.65;;;12.80;99.90;;;13.07;100.00;101269.34;4968818;28;20060;-66
2024/03/13 08:20:56;;;;;;;32.83;9.55;;;12.80;99.90;;;13.03;100.00;101280.91;4954558;28;20045;-63
2024/03/13 08:23:44;;;;;;;29.42;8.60;;;12.80;99.90;;;13.10;100.00;101285.28;4969220;28;20073;-64
2024/03/13 08:26:31;;;;;;;26.52;8.75;;;12.80;99.90;;;13.09;100.00;101286.16;4969512;28;20153;-71
2024/03/13 08:29:17;;;;;;;32.50;9.63;;;12.80;99.90;;;13.13;100.00;101287.91;4969063;28;20154;-64
2024/03/13 08:32:06;;;;;;;28.05;8.70;;;12.80;99.90;;;13.06;100.00;101290.63;4962745;28;20058;-63
2024/03/13 08:34:52;;;;;;;28.10;8.75;;;12.80;99.90;;;13.11;100.00;101288.81;4950406;28;20050;-65
2024/03/13 08:37:41;;;;;;;33.17;9.27;;;12.80;99.90;;;13.21;100.00;101293.16;4962672;28;20078;-68
2024/03/13 08:40:28;;;;;;;27.27;8.52;;;12.80;99.90;;;13.32;100.00;101296.59;4963472;28;20172;-66
2024/03/13 08:43:18;;;;;;;26.58;8.73;;;13.00;99.90;;;13.31;100.00;101295.72;4963055;28;20407;-66
2024/03/13 08:46:05;;;;;;;26.13;8.77;;;13.00;99.90;;;13.34;100.00;101305.44;4964623;28;20129;-63
2024/03/13 08:48:54;;;;;;;29.33;8.98;;;13.00;99.90;;;13.32;100.00;101305.44;4949101;28;20046;-62
2024/03/13 08:51:40;;;;;;;22.65;8.18;;;13.00;99.90;;;13.25;100.00;101295.78;4950924;28;20469;-66
2024/03/13 08:54:26;;;;;;;30.17;8.55;;;13.00;99.90;;;13.21;100.00;101302.00;4962691;28;20058;-66
2024/03/13 08:57:12;;;;;;;31.10;9.50;;;12.90;99.90;;;13.19;100.00;101302.91;4962610;28;20229;-63
2024/03/13 08:59:58;;;;;;;29.40;9.23;;;12.90;99.90;;;13.12;100.00;101304.75;4963055;28;20043;-65
2024/03/13 09:02:44;;;;;;;32.63;9.13;;;12.80;99.90;;;13.13;100.00;101301.19;4962549;28;20054;-66
2024/03/13 09:05:31;;;;;;;28.77;9.48;;;12.80;99.90;;;13.14;100.00;101308.25;4949151;28;20046;-63
2024/03/13 09:08:18;;;;;;;30.65;9.73;;;12.80;99.90;;;13.18;100.00;101317.97;4951282;28;20086;-63
2024/03/13 09:11:03;;;;;;;30.15;9.40;;;12.90;99.90;;;13.15;100.00;101307.38;4964455;28;20047;-63
2024/03/13 09:13:32;;;;;;;27.83;9.32;;;12.90;99.90;;;13.24;100.00;101314.41;4959942;28;20050;-63
2024/03/13 09:16:04;;;;;;;26.73;8.55;;;12.90;99.90;;;13.33;100.00;101324.94;4959243;28;20050;-63
2024/03/13 09:18:35;;;;;;;30.13;9.88;;;13.00;99.90;;;13.35;100.00;101321.38;4960024;28;20043;-63
2024/03/13 09:21:04;;;;;;;30.67;10.32;;;13.10;99.90;;;13.31;100.00;101319.66;4960287;28;20077;-63
2024/03/13 09:23:33;;;;;;;31.10;9.90;;;13.10;99.90;;;13.27;100.00;101328.53;4959601;28;20043;-63
2024/03/13 09:26:02;;;;;;;32.80;10.38;;;13.00;99.90;;;13.27;100.00;101322.31;4959885;28;20050;-63
2024/03/13 09:28:31;;;;;;;27.42;9.77;;;13.00;99.90;;;13.23;100.00;101321.47;4959508;28;20081;-62
2024/03/13 09:31:02;;;;;;;27.45;9.95;;;12.90;99.90;;;13.37;100.00;101329.34;4959518;28;20133;-63
2024/03/13 09:33:31;;;;;;;27.50;10.02;;;13.00;99.90;;;13.42;100.00;101328.41;4959815;28;20046;-63
2024/03/13 09:36:00;;;;;;;34.20;10.23;;;13.10;99.90;;;13.36;100.00;101325.78;4960223;28;20057;-63
2024/03/13 09:38:30;;;;;;;39.60;10.38;;;13.10;99.90;;;13.23;100.00;101321.47;4946784;28;20647;-63
2024/03/13 09:41:01;;;;;;;38.10;10.30;;;13.00;99.90;;;13.27;100.00;101325.88;4963775;28;20049;-63
2024/03/13 09:43:30;;;;;;;27.48;8.23;;;13.00;99.90;;;13.26;100.00;101324.09;4947728;28;20141;-63
2024/03/13 09:45:59;;;;;;;32.17;8.65;;;13.00;99.90;;;12.87;100.00;101250.03;4947608;28;20049;-63
2024/03/13 09:48:28;;;;;;;31.05;7.95;;;13.00;99.90;;;13.28;100.00;101324.97;4962192;28;20057;-68
2024/03/13 09:50:57;;;;;;;33.80;8.43;;;13.00;99.90;;;13.24;100.00;101328.53;4945239;28;20141;-65
2024/03/13 09:53:28;;;;;;;24.00;7.70;;;13.00;99.90;;;13.32;100.00;101332.03;4961249;28;20134;-63
2024/03/13 09:55:57;;;;;;;26.42;7.55;;;13.00;99.90;;;13.36;100.00;101332.88;4960603;28;20113;-65
2024/03/13 09:58:26;;;;;;;25.17;6.60;;;13.00;99.90;;;13.31;100.00;101332.94;4960649;28;20070;-64
2024/03/13 10:00:56;;;;;;;29.58;7.53;;;13.00;99.90;;;13.30;100.00;101343.53;4960595;28;20042;-63
2024/03/13 10:03:25;;;;;;;23.60;6.60;;;13.10;99.90;;;13.29;100.00;101342.69;4961162;28;20082;-64
2024/03/13 10:05:54;;;;;;;28.92;7.05;;;13.00;99.90;;;13.35;100.00;101339.97;4945016;28;20050;-63
2024/03/13 10:08:23;;;;;;;24.92;6.00;;;13.10;99.90;;;13.40;100.00;101346.13;4960551;28;20072;-64
2024/03/13 10:10:52;;;;;;;26.77;6.75;;;13.10;99.90;;;13.30;100.00;101333.81;4960645;28;20128;-63
2024/03/13 10:13:21;;;;;;;15.65;5.03;;;13.10;99.90;;;13.37;100.00;101342.63;4960835;28;20069;-65
2024/03/13 10:15:50;;;;;;;19.15;6.32;;;13.10;99.90;;;13.42;100.00;101349.66;4960796;28;20046;-66
2024/03/13 10:18:19;;;;;;;22.17;6.47;;;13.10;99.90;;;13.43;100.00;101351.41;4960354;28;20134;-63
2024/03/13 10:20:49;;;;;;;19.83;6.00;;;13.10;99.90;;;13.44;100.00;101337.25;4960931;28;20050;-63
2024/03/13 10:23:20;;;;;;;18.03;6.60;;;13.20;99.90;;;13.44;100.00;101349.63;4960795;28;20057;-66
2024/03/13 10:25:49;;;;;;;16.48;6.90;;;13.20;99.90;;;13.44;100.00;101353.19;4961299;28;20312;-63
2024/03/13 10:28:23;;;;;;;19.30;6.93;;;13.10;99.90;;;13.40;100.00;101353.22;4960519;28;20061;-64